Time;durP1;ratioP1;P1;durP2;ratioP2;P2;SDS_P1;SDS_P2;PMS_P1;PMS_P2;Temp;Humidity;BMP_temperature;BMP_pressure;BME280_temperature;BME280_humidity;BME280_pressure;Samples;Min_cycle;Max_cycle;Signal;HPM_P1;HPM_P2
2022/06/25 09:24:20;;;;;;;;;1.00;1.00;;;;;;;;1585316;27;83589;-72
2022/06/25 09:25:06;;;;;;;;;0.67;0.67;;;;;;;;1576494;27;83909;-73
2022/06/25 09:25:59;;;;;;;;;1.00;1.00;;;;;;;;1578519;27;83810;-73
2022/06/25 09:26:51;;;;;;;;;1.00;1.00;;;;;;;;1573832;27;83405;-74
2022/06/25 09:27:39;;;;;;;;;1.00;1.00;;;;;;;;1572923;27;83320;-74
2022/06/25 09:28:31;;;;;;;;;1.75;1.75;;;;;;;;1571941;27;83307;-73
2022/06/25 09:29:16;;;;;;;;;2.00;2.00;;;;;;;;1572149;27;83532;-73
2022/06/25 09:30:09;;;;;;;;;1.33;1.33;;;;;;;;1572126;27;83505;-73
2022/06/25 09:30:54;;;;;;;;;1.50;1.50;;;;;;;;1572179;27;83461;-71
2022/06/25 09:31:40;;;;;;;;;1.00;1.00;;;;;;;;1572274;27;83490;-71
2022/06/25 09:32:25;;;;;;;;;1.00;1.00;;;;;;;;1574569;27;83292;-70
2022/06/25 09:33:13;;;;;;;;;1.00;1.00;;;;;;;;1578508;27;83187;-70
2022/06/25 09:34:01;;;;;;;;;2.00;2.00;;;;;;;;1578352;27;83649;-71
2022/06/25 09:34:47;;;;;;;;;1.80;1.80;;;;;;;;1578214;27;83478;-71
2022/06/25 09:35:35;;;;;;;;;1.25;1.25;;;;;;;;1578565;27;83416;-70
2022/06/25 09:36:23;;;;;;;;;1.40;1.40;;;;;;;;1578463;27;83442;-70
2022/06/25 09:37:21;;;;;;;;;1.00;1.00;;;;;;;;1576186;27;83584;-69
2022/06/25 09:38:12;;;;;;;;;2.00;2.00;;;;;;;;1573663;27;83515;-69
2022/06/25 09:38:57;;;;;;;;;1.00;1.00;;;;;;;;1572160;27;83483;-69
2022/06/25 09:39:44;;;;;;;;;1.50;1.50;;;;;;;;1572172;27;83685;-69
2022/06/25 09:40:29;;;;;;;;;2.00;2.00;;;;;;;;1572190;27;83236;-70
2022/06/25 09:41:14;;;;;;;;;0.75;0.75;;;;;;;;1572127;27;83452;-70
2022/06/25 09:41:59;;;;;;;;;1.25;1.25;;;;;;;;1572089;27;83524;-72
2022/06/25 09:42:46;;;;;;;;;0.00;0.00;;;;;;;;1577011;27;83526;-71
2022/06/25 09:43:37;;;;;;;;;1.00;1.00;;;;;;;;1572376;27;83661;-71
2022/06/25 09:44:23;;;;;;;;;1.00;1.00;;;;;;;;1571982;27;83507;-71
2022/06/25 09:45:11;;;;;;;;;1.00;1.00;;;;;;;;1572047;27;83363;-70
2022/06/25 09:46:01;;;;;;;;;1.60;1.60;;;;;;;;1578457;27;83498;-71
2022/06/25 09:46:52;;;;;;;;;1.00;1.00;;;;;;;;1581292;27;83393;-71
2022/06/25 09:47:39;;;;;;;;;1.00;1.00;;;;;;;;1578087;27;84032;-71
2022/06/25 09:48:26;;;;;;;;;2.00;2.00;;;;;;;;1571886;27;83820;-72
2022/06/25 09:49:21;;;;;;;;;1.80;1.80;;;;;;;;1571566;27;83997;-72
2022/06/25 09:50:08;;;;;;;;;1.00;1.00;;;;;;;;1572017;27;83166;-72
2022/06/25 09:51:12;;;;;;;;;1.20;1.20;;;;;;;;1573693;27;83859;-72
2022/06/25 09:52:00;;;;;;;;;1.00;1.00;;;;;;;;1577576;27;83935;-72
2022/06/25 09:52:50;;;;;;;;;1.20;1.20;;;;;;;;1574319;27;85262;-72
2022/06/25 09:53:44;;;;;;;;;1.00;1.00;;;;;;;;1571950;27;83968;-72
2022/06/25 09:54:30;;;;;;;;;1.40;1.40;;;;;;;;1571844;27;83861;-72
2022/06/25 09:55:15;;;;;;;;;1.00;1.00;;;;;;;;1571843;27;83966;-72
2022/06/25 09:56:01;;;;;;;;;0.75;0.75;;;;;;;;1571904;27;83906;-72
2022/06/25 09:56:46;;;;;;;;;3.80;2.00;;;;;;;;1571849;27;83998;-73
2022/06/25 09:57:32;;;;;;;;;1.75;1.75;;;;;;;;1573498;27;83896;-72
2022/06/25 09:58:17;;;;;;;;;1.75;1.75;;;;;;;;1571901;27;83247;-72
2022/06/25 09:59:02;;;;;;;;;1.00;1.00;;;;;;;;1571805;27;83936;-72
2022/06/25 09:59:50;;;;;;;;;0.50;0.50;;;;;;;;1571886;27;84219;-72
2022/06/25 10:00:36;;;;;;;;;1.00;1.00;;;;;;;;1574532;27;83844;-72
2022/06/25 10:01:23;;;;;;;;;0.75;0.75;;;;;;;;1572031;27;83277;-72
2022/06/25 10:02:10;;;;;;;;;1.20;1.20;;;;;;;;1571826;27;83267;-72
2022/06/25 10:02:57;;;;;;;;;1.00;1.00;;;;;;;;1575827;27;83227;-72
2022/06/25 10:03:43;;;;;;;;;1.00;1.00;;;;;;;;1577869;27;83287;-74
2022/06/25 10:04:30;;;;;;;;;1.80;1.80;;;;;;;;1578151;27;83928;-72
2022/06/25 10:05:23;;;;;;;;;1.00;1.00;;;;;;;;1578150;27;84072;-72
2022/06/25 10:06:08;;;;;;;;;1.20;1.20;;;;;;;;1578123;27;84047;-72
2022/06/25 10:06:55;;;;;;;;;1.00;1.00;;;;;;;;1578243;27;83908;-72
2022/06/25 10:08:00;;;;;;;;;1.00;1.00;;;;;;;;1573236;27;83969;-69
2022/06/25 10:08:47;;;;;;;;;1.00;1.00;;;;;;;;1565604;27;83857;-70
2022/06/25 10:09:33;;;;;;;;;1.00;1.00;;;;;;;;1574470;27;84030;-70
2022/06/25 10:10:19;;;;;;;;;1.60;1.60;;;;;;;;1580722;27;83488;-70
2022/06/25 10:11:06;;;;;;;;;0.80;0.80;;;;;;;;1572607;27;83436;-68
2022/06/25 10:11:52;;;;;;;;;1.00;1.00;;;;;;;;1569735;27;83547;-70
2022/06/25 10:12:37;;;;;;;;;1.00;1.00;;;;;;;;1570375;27;83344;-70
2022/06/25 10:13:23;;;;;;;;;2.00;2.00;;;;;;;;1571131;27;83476;-70
2022/06/25 10:14:08;;;;;;;;;1.00;1.00;;;;;;;;1571694;27;83216;-71
2022/06/25 10:14:54;;;;;;;;;2.00;2.00;;;;;;;;1571817;27;83210;-70
2022/06/25 10:15:39;;;;;;;;;0.75;0.75;;;;;;;;1567126;27;83398;-70
2022/06/25 10:16:26;;;;;;;;;1.00;1.00;;;;;;;;1565423;27;83370;-71
2022/06/25 10:17:11;;;;;;;;;1.00;1.00;;;;;;;;1565263;27;83652;-70
2022/06/25 10:17:59;;;;;;;;;1.00;1.00;;;;;;;;1565527;27;83216;-71
2022/06/25 10:18:44;;;;;;;;;1.20;1.20;;;;;;;;1565251;27;83435;-72
2022/06/25 10:19:31;;;;;;;;;1.00;1.00;;;;;;;;1571816;27;83550;-72
2022/06/25 10:20:17;;;;;;;;;1.20;1.20;;;;;;;;1571656;27;83497;-69
2022/06/25 10:21:03;;;;;;;;;1.00;1.00;;;;;;;;1571700;27;83555;-72
2022/06/25 10:21:48;;;;;;;;;2.00;2.00;;;;;;;;1571832;27;83390;-71
2022/06/25 10:22:36;;;;;;;;;0.25;0.25;;;;;;;;1568933;27;83206;-72
2022/06/25 10:23:21;;;;;;;;;1.00;1.00;;;;;;;;1571356;27;83520;-72
2022/06/25 10:24:07;;;;;;;;;1.00;1.00;;;;;;;;1571821;27;83116;-72
2022/06/25 10:24:53;;;;;;;;;2.00;2.00;;;;;;;;1571619;27;83241;-71
2022/06/25 10:25:39;;;;;;;;;0.00;0.00;;;;;;;;1571715;27;83331;-71
2022/06/25 10:26:24;;;;;;;;;1.00;1.00;;;;;;;;1569932;27;83480;-73
2022/06/25 10:27:09;;;;;;;;;1.00;1.00;;;;;;;;1570486;27;83575;-72
2022/06/25 10:28:03;;;;;;;;;1.25;1.25;;;;;;;;1571667;27;83369;-72
2022/06/25 10:28:48;;;;;;;;;2.00;2.00;;;;;;;;1570834;27;83046;-70
2022/06/25 10:29:34;;;;;;;;;1.00;1.00;;;;;;;;1567286;27;83567;-70
2022/06/25 10:30:36;;;;;;;;;1.75;1.75;;;;;;;;1568245;27;83583;-72
2022/06/25 10:31:21;;;;;;;;;3.40;3.40;;;;;;;;1567018;27;83119;-71
2022/06/25 10:32:16;;;;;;;;;0.00;0.00;;;;;;;;1567874;27;83667;-71
2022/06/25 10:33:02;;;;;;;;;1.40;1.40;;;;;;;;1568246;27;83535;-69
2022/06/25 10:33:56;;;;;;;;;1.00;1.00;;;;;;;;1571892;27;83079;-68
2022/06/25 10:34:52;;;;;;;;;1.00;1.00;;;;;;;;1571986;27;83336;-68
2022/06/25 10:35:39;;;;;;;;;1.80;1.80;;;;;;;;1566933;27;83423;-68
2022/06/25 10:36:45;;;;;;;;;2.00;2.00;;;;;;;;1567177;27;83490;-68
2022/06/25 10:37:49;;;;;;;;;1.40;1.40;;;;;;;;1565770;27;83655;-69
2022/06/25 10:38:34;;;;;;;;;1.00;1.00;;;;;;;;1567593;27;83525;-68
2022/06/25 10:39:39;;;;;;;;;1.00;1.00;;;;;;;;1567627;27;83306;-68
2022/06/25 10:40:25;;;;;;;;;0.80;0.80;;;;;;;;1567201;27;83327;-69
2022/06/25 10:43:35;;;;;;;;;1.60;1.60;;;;;;;;1567577;27;83226;-69
2022/06/25 10:44:21;;;;;;;;;1.00;1.00;;;;;;;;1567585;27;83346;-69
2022/06/25 10:45:09;;;;;;;;;0.00;0.00;;;;;;;;1567542;27;83526;-69
2022/06/25 10:45:54;;;;;;;;;1.00;1.00;;;;;;;;1567449;27;83445;-69
2022/06/25 10:46:41;;;;;;;;;1.75;1.75;;;;;;;;1567584;27;83279;-68
2022/06/25 10:47:59;;;;;;;;;1.00;1.00;;;;;;;;1567077;27;83472;-69
2022/06/25 10:49:02;;;;;;;;;1.00;1.00;;;;;;;;1555085;27;83597;-68
2022/06/25 10:49:47;;;;;;;;;1.20;1.20;;;;;;;;1567244;27;83657;-68
2022/06/25 10:50:34;;;;;;;;;1.00;1.00;;;;;;;;1567416;27;83356;-68
2022/06/25 10:51:30;;;;;;;;;1.40;1.40;;;;;;;;1567374;27;83285;-68
2022/06/25 10:52:15;;;;;;;;;1.00;1.00;;;;;;;;1566672;27;83525;-69
2022/06/25 10:53:05;;;;;;;;;1.00;1.00;;;;;;;;1567391;27;83501;-68
2022/06/25 10:53:50;;;;;;;;;1.00;1.00;;;;;;;;1567459;27;83525;-68
2022/06/25 10:54:37;;;;;;;;;1.00;1.00;;;;;;;;1567272;27;83594;-68
2022/06/25 10:55:22;;;;;;;;;1.00;1.00;;;;;;;;1567406;27;83479;-67
2022/06/25 10:56:14;;;;;;;;;1.00;1.00;;;;;;;;1567410;27;83273;-67
2022/06/25 10:57:00;;;;;;;;;0.00;0.00;;;;;;;;1568373;27;83497;-67
2022/06/25 10:57:48;;;;;;;;;1.00;1.00;;;;;;;;1565047;27;83943;-67
2022/06/25 10:58:42;;;;;;;;;0.40;0.40;;;;;;;;1567287;27;84030;-67
2022/06/25 10:59:45;;;;;;;;;1.00;1.00;;;;;;;;1567322;27;84086;-67
2022/06/25 11:00:44;;;;;;;;;1.00;1.00;;;;;;;;1567307;27;83997;-67
2022/06/25 11:01:30;;;;;;;;;1.20;1.20;;;;;;;;1565915;27;83353;-67
2022/06/25 11:02:23;;;;;;;;;1.00;1.00;;;;;;;;1567034;27;83966;-67
2022/06/25 11:03:08;;;;;;;;;1.00;1.00;;;;;;;;1567243;27;84050;-67
2022/06/25 11:03:55;;;;;;;;;1.00;1.00;;;;;;;;1567420;27;83861;-67
2022/06/25 11:04:47;;;;;;;;;1.00;1.00;;;;;;;;1567367;27;83994;-67
2022/06/25 11:05:39;;;;;;;;;1.00;1.00;;;;;;;;1567357;27;83156;-67
2022/06/25 11:06:29;;;;;;;;;1.60;1.00;;;;;;;;1567169;27;83468;-67
2022/06/25 11:07:19;;;;;;;;;32.75;31.75;;;;;;;;1562243;27;83229;-68
2022/06/25 11:08:04;;;;;;;;;615.50;531.00;;;;;;;;1560334;28;83981;-68
2022/06/25 11:08:50;;;;;;;;;2179.20;1406.00;;;;;;;;1559748;28;86125;-68
2022/06/25 11:09:37;;;;;;;;;1680.17;1126.67;;;;;;;;1563773;27;88239;-68
2022/06/25 11:10:33;;;;;;;;;1847.20;1229.20;;;;;;;;1565147;27;88928;-68
2022/06/25 11:11:28;;;;;;;;;818.40;626.20;;;;;;;;1565479;27;88985;-68
2022/06/25 11:12:13;;;;;;;;;376.75;310.50;;;;;;;;1561136;27;88799;-68
2022/06/25 11:12:59;;;;;;;;;231.75;209.25;;;;;;;;1560099;28;86339;-68
2022/06/25 11:13:44;;;;;;;;;562.00;494.80;;;;;;;;1552695;28;85682;-68
2022/06/25 11:14:30;;;;;;;;;399.80;376.80;;;;;;;;1553235;28;86212;-68
2022/06/25 11:15:15;;;;;;;;;328.33;314.00;;;;;;;;1555530;28;86358;-68
2022/06/25 11:16:11;;;;;;;;;207.75;195.75;;;;;;;;1560232;28;86125;-70
2022/06/25 11:16:56;;;;;;;;;74.80;64.80;;;;;;;;1560227;28;86428;-67
2022/06/25 11:17:43;;;;;;;;;53.00;44.33;;;;;;;;1560707;28;86425;-67
2022/06/25 11:18:28;;;;;;;;;119.80;115.60;;;;;;;;1560700;28;84038;-67
2022/06/25 11:19:13;;;;;;;;;392.25;377.25;;;;;;;;1559989;28;85532;-68
2022/06/25 11:20:03;;;;;;;;;475.80;443.80;;;;;;;;1560313;27;86329;-68
